Crane, Oregon
Current Conditions -  °F | °C
As of 9:53 AM on Thursday 30 Oct 2014 (Local Time) from KBNO Reporting Station
Clear Clear  
Wind Chill: 47°   Ceiling: Unl
Heat Index: 47°   Visibility: 10mi
Dew Point: 40°   Wind: 3mph
Humidity: 77%   Direction: 240°WSW
Pressure: 30.11"   Gusts: NA
Location:  43.41°N, 118.58°W
Report Text: KBNO 301653Z AUTO 24003KT 10SM CLR 08/04 A3011 RMK AO2 SLP193 T00830044 $
Loading
Personal Weather Stations






























Interactive Weather Map New forecast layout! Learn more

10-Day Weather Forecast

Advertisements
Track Severe Weather on mobile